createdAt,value
2019-03-11T04:55:01.310Z,0.1
2019-03-11T04:57:01.060Z,0.2
2019-03-11T04:58:01.092Z,0.3
2019-03-11T05:00:01.212Z,0.4
2019-03-11T05:01:01.094Z,0.5
2019-03-11T05:03:01.094Z,0.7
2019-03-11T05:04:01.068Z,0.8
2019-03-11T05:05:01.251Z,0.9
2019-03-11T05:06:01.216Z,1.1
2019-03-11T05:07:01.095Z,1.3
2019-03-11T05:08:01.159Z,1.6
2019-03-11T05:09:01.101Z,1.9
2019-03-11T05:10:01.254Z,2.3
2019-03-11T05:11:01.066Z,2.6
2019-03-11T05:12:01.108Z,3.1
2019-03-11T05:13:01.107Z,3.6
2019-03-11T05:14:01.074Z,4.3
2019-03-11T05:15:01.260Z,5.1
2019-03-11T05:16:01.072Z,6.0
2019-03-11T05:17:01.073Z,7.1
2019-03-11T05:18:01.100Z,8.5
2019-03-11T05:19:01.104Z,10.0
2019-03-11T05:20:01.257Z,11.8
2019-03-11T05:21:01.101Z,14.1
2019-03-11T05:22:01.075Z,16.8
2019-03-11T05:23:01.111Z,20.3
2019-03-11T05:24:01.102Z,24.4
2019-03-11T05:25:01.404Z,29.3
2019-03-11T05:27:01.086Z,35.8
2019-03-11T05:28:01.058Z,43.1
2019-03-11T05:29:01.151Z,50.9
2019-03-11T05:30:02.272Z,59.5
2019-03-11T05:31:01.202Z,69.8
2019-03-11T05:32:01.166Z,81.9
2019-03-11T05:33:01.086Z,96.5
2019-03-11T05:34:01.087Z,113.9
2019-03-11T05:35:02.373Z,133.2
2019-03-11T05:36:01.395Z,155.6
2019-03-11T05:37:01.089Z,181.5
2019-03-11T05:38:01.099Z,212.9
2019-03-11T05:39:01.122Z,246.9
2019-03-11T05:40:01.061Z,284.7
2019-03-11T05:41:01.241Z,327.7
2019-03-11T05:42:01.124Z,375.2
2019-03-11T05:43:01.093Z,428.6
2019-03-11T05:44:01.059Z,488.3
2019-03-11T05:45:01.090Z,554.0
2019-03-11T05:46:01.239Z,625.5
2019-03-11T05:47:01.069Z,703.7
2019-03-11T05:48:01.103Z,785.6
2019-03-11T05:49:01.101Z,867.3
2019-03-11T05:50:01.104Z,953.0
2019-03-11T05:51:01.251Z,1046.1
2019-03-11T05:52:01.071Z,1140.2
2019-03-11T05:53:01.098Z,1233.4
2019-03-11T05:54:01.093Z,1329.8
2019-03-11T05:55:01.116Z,1429.0
2019-03-11T05:56:01.238Z,1527.6
2019-03-11T05:57:01.092Z,1628.5
2019-03-11T05:58:01.092Z,1740.4
2019-03-11T05:59:01.093Z,1854.0
2019-03-11T06:00:01.083Z,1965.0
2019-03-11T06:01:01.221Z,2072.7
2019-03-11T06:02:01.108Z,2180.1
2019-03-11T06:04:01.215Z,2305.1
2019-03-11T06:05:01.116Z,2440.6
2019-03-11T06:06:01.283Z,2577.7
2019-03-11T06:07:01.108Z,2716.8
2019-03-11T06:08:01.096Z,2858.5
2019-03-11T06:09:01.062Z,2995.7
2019-03-11T06:10:01.126Z,3141.3
2019-03-11T06:11:01.212Z,3293.9
2019-03-11T06:12:01.829Z,3459.9
2019-03-11T06:13:01.063Z,3636.1
2019-03-11T06:14:01.121Z,3810.6
2019-03-11T06:15:01.094Z,3992.9
2019-03-11T06:16:01.246Z,4184.3
2019-03-11T06:17:01.063Z,4387.1
2019-03-11T06:18:01.059Z,4601.0
2019-03-11T06:19:01.128Z,4804.3
2019-03-11T06:20:01.093Z,5014.1
2019-03-11T06:21:01.244Z,5243.8
2019-03-11T06:22:01.092Z,5489.9
2019-03-11T06:23:01.097Z,5754.3
2019-03-11T06:24:01.125Z,6060.1
2019-03-11T06:25:01.098Z,6391.8
2019-03-11T06:26:01.221Z,6759.3
2019-03-11T06:27:01.830Z,7150.5
2019-03-11T06:28:01.097Z,7559.5
2019-03-11T06:29:01.100Z,7995.1
2019-03-11T06:30:01.100Z,8429.1
2019-03-11T06:31:01.268Z,8871.9
2019-03-11T06:32:01.095Z,9321.1
2019-03-11T06:33:01.110Z,9776.9
2019-03-11T06:34:01.109Z,10216.3
2019-03-11T06:35:01.094Z,10659.1
2019-03-11T06:36:01.241Z,11068.4
2019-03-11T06:37:01.063Z,11427.1
2019-03-11T06:38:01.098Z,11750.2
2019-03-11T06:39:05.567Z,12026.1
2019-03-11T06:40:01.066Z,12257.7
2019-03-11T06:41:01.282Z,12478.2
2019-03-11T06:42:01.067Z,12697.5
2019-03-11T06:43:01.072Z,12909.5
2019-03-11T06:44:01.131Z,13121.7
2019-03-11T06:45:01.097Z,13396.1
2019-03-11T06:46:01.264Z,13720.2
2019-03-11T06:47:01.068Z,14063.3
2019-03-11T06:48:01.097Z,14414.0
2019-03-11T06:49:01.131Z,14823.1
2019-03-11T06:50:01.097Z,15258.1
2019-03-11T06:51:01.227Z,15755.7
2019-03-11T06:52:03.466Z,16314.3
2019-03-11T06:53:01.073Z,16906.5
2019-03-11T06:54:01.134Z,17527.5
2019-03-11T06:55:01.068Z,18219.8
2019-03-11T06:56:01.221Z,18949.1
2019-03-11T06:57:01.076Z,19729.9
2019-03-11T06:58:01.104Z,20614.2
2019-03-11T06:59:01.135Z,21592.1
2019-03-11T07:00:01.109Z,22618.7
2019-03-11T07:01:01.260Z,23681.5
2019-03-11T07:02:01.175Z,24787.9
2019-03-11T07:03:01.104Z,25920.4
2019-03-11T07:04:01.140Z,27067.2
2019-03-11T07:05:02.360Z,28230.9
2019-03-11T07:06:01.224Z,29412.9
2019-03-11T07:07:01.080Z,30631.5
2019-03-11T07:09:01.095Z,31948.4
2019-03-11T07:10:01.069Z,33294.1
2019-03-11T07:11:01.251Z,34623.6
2019-03-11T07:12:01.068Z,35950.8
2019-03-11T07:13:01.074Z,37253.7
2019-03-11T07:14:06.109Z,38501.1
2019-03-11T07:15:01.070Z,39688.5
2019-03-11T07:16:01.268Z,40811.3
2019-03-11T07:18:01.122Z,41921.7
2019-03-11T07:19:01.096Z,42987.5
2019-03-11T07:20:01.124Z,44035.9
2019-03-11T07:21:01.095Z,45055.7
2019-03-11T07:22:01.261Z,46048.5
2019-03-11T07:23:01.093Z,47018.0
2019-03-11T07:24:01.094Z,47966.0
2019-03-11T07:25:01.070Z,48853.0
2019-03-11T07:26:01.095Z,49748.7
2019-03-11T07:27:01.249Z,50636.8
2019-03-11T07:28:01.068Z,51455.9
2019-03-11T07:29:01.068Z,52186.3
2019-03-11T07:30:01.070Z,52816.9
2019-03-11T07:31:01.107Z,53323.2
2019-03-11T07:32:01.226Z,53678.9
2019-03-11T07:33:01.109Z,53851.2
2019-03-11T07:34:01.111Z,53998.4
2019-03-11T07:35:08.144Z,54063.5
2019-03-11T07:36:01.108Z,54057.9
2019-03-11T07:37:01.296Z,54033.4
2019-03-11T07:38:01.175Z,53979.9
2019-03-11T07:39:01.217Z,53821.5
2019-03-11T07:40:01.107Z,53459.6
2019-03-11T07:41:01.107Z,52889.1
2019-03-11T07:42:01.221Z,52190.1
2019-03-11T07:43:01.088Z,51535.7
2019-03-11T07:44:01.079Z,51034.5
2019-03-11T07:45:01.103Z,50807.5
2019-03-11T07:46:01.142Z,50843.8
2019-03-11T07:47:01.255Z,51117.4
2019-03-11T07:48:01.118Z,51578.7
2019-03-11T07:50:01.054Z,51940.2
2019-03-11T07:51:02.077Z,52285.6
2019-03-11T07:52:02.624Z,52540.7
2019-03-11T07:53:01.090Z,52769.3
2019-03-11T07:54:01.095Z,52922.4
2019-03-11T07:55:01.054Z,53148.3
2019-03-11T07:56:01.087Z,53663.3
2019-03-11T07:57:01.215Z,54547.5
2019-03-11T07:58:01.101Z,55774.7
2019-03-11T07:59:01.098Z,57040.3
2019-03-11T08:00:01.094Z,58173.1
2019-03-11T08:01:01.246Z,59054.3
2019-03-11T08:02:01.266Z,59693.1
2019-03-11T08:03:02.136Z,60003.0
2019-03-11T08:04:01.117Z,60262.3
2019-03-11T08:05:01.086Z,60765.0
2019-03-11T08:06:01.093Z,61323.4
2019-03-11T08:07:01.247Z,62001.8
2019-03-11T08:08:01.222Z,62686.5
2019-03-11T08:09:01.102Z,63424.1
2019-03-11T08:10:01.098Z,64139.3
2019-03-11T08:11:01.095Z,64707.3
2019-03-11T08:12:02.270Z,65053.9
2019-03-11T08:13:01.098Z,65141.6
2019-03-11T08:15:01.095Z,65141.6
2019-03-11T08:17:01.964Z,65168.3
2019-03-11T08:18:01.125Z,65376.6
2019-03-11T08:19:01.160Z,65535.0
2019-03-11T08:30:01.067Z,65535.0
2019-03-11T08:46:01.358Z,65535.0
2019-03-11T09:00:01.416Z,65535.0
2019-03-11T09:15:01.375Z,65535.0
2019-03-11T09:30:01.411Z,65535.0
2019-03-11T09:45:01.309Z,65535.0
2019-03-11T10:00:01.417Z,65535.0
2019-03-11T10:15:01.373Z,65535.0
2019-03-11T10:30:01.218Z,65535.0
2019-03-11T10:45:01.292Z,65535.0
2019-03-11T11:00:01.296Z,65535.0
2019-03-11T11:15:01.365Z,65535.0
2019-03-11T11:30:01.098Z,65535.0
2019-03-11T11:45:01.225Z,65535.0
2019-03-11T12:00:01.137Z,65535.0
2019-03-11T12:15:01.247Z,65535.0
2019-03-11T12:30:01.088Z,65535.0
2019-03-11T12:45:01.092Z,65535.0
2019-03-11T13:00:02.759Z,65535.0
2019-03-11T13:15:01.167Z,65535.0
2019-03-11T13:30:01.976Z,65535.0
2019-03-11T13:45:01.158Z,65535.0
2019-03-11T14:00:01.098Z,65535.0
2019-03-11T14:15:01.165Z,65535.0
2019-03-11T14:24:01.383Z,65486.1
2019-03-11T14:25:01.136Z,65163.9
2019-03-11T14:26:01.095Z,64769.1
2019-03-11T14:30:01.259Z,64769.1
2019-03-11T14:39:01.141Z,64817.9
2019-03-11T14:40:01.103Z,65140.1
2019-03-11T14:42:01.088Z,65535.0
2019-03-11T14:45:01.151Z,65535.0
2019-03-11T15:00:01.644Z,65535.0
2019-03-11T15:06:01.331Z,65249.8
2019-03-11T15:07:01.153Z,64775.9
2019-03-11T15:08:01.091Z,64231.3
2019-03-11T15:09:01.091Z,63654.2
2019-03-11T15:10:01.097Z,63019.0
2019-03-11T15:11:01.439Z,62317.1
2019-03-11T15:12:01.061Z,61556.9
2019-03-11T15:13:01.092Z,60745.3
2019-03-11T15:14:01.060Z,59881.3
2019-03-11T15:15:01.094Z,58962.9
2019-03-11T15:16:01.306Z,57985.3
2019-03-11T15:17:01.092Z,56948.7
2019-03-11T15:18:01.128Z,55849.1
2019-03-11T15:19:01.098Z,54749.7
2019-03-11T15:20:01.064Z,53689.9
2019-03-11T15:21:01.253Z,52894.7
2019-03-11T15:22:01.103Z,52154.2
2019-03-11T15:23:06.085Z,51334.7
2019-03-11T15:24:01.101Z,50481.3
2019-03-11T15:25:01.069Z,49647.2
2019-03-11T15:26:01.219Z,48817.7
2019-03-11T15:27:01.175Z,48043.4
2019-03-11T15:28:01.146Z,47312.5
2019-03-11T15:29:01.067Z,46591.8
2019-03-11T15:30:01.104Z,45882.7
2019-03-11T15:31:10.022Z,45191.5
2019-03-11T15:32:01.098Z,44517.2
2019-03-11T15:33:01.131Z,43870.1
2019-03-11T15:34:01.070Z,43184.9
2019-03-11T15:36:01.234Z,42415.3
2019-03-11T15:37:01.052Z,41633.1
2019-03-11T15:38:01.087Z,40959.5
2019-03-11T15:39:01.110Z,40417.4
2019-03-11T15:40:01.083Z,39923.5
2019-03-11T15:41:02.477Z,39471.4
2019-03-11T15:42:01.051Z,39066.3
2019-03-11T15:43:01.084Z,38641.5
2019-03-11T15:44:06.093Z,38194.1
2019-03-11T15:45:01.097Z,37758.7
2019-03-11T15:46:01.245Z,37356.7
2019-03-11T15:47:01.062Z,37039.1
2019-03-11T15:48:01.673Z,36733.4
2019-03-11T15:49:01.059Z,36403.7
2019-03-11T15:50:01.062Z,36059.5
2019-03-11T15:51:01.427Z,35714.2
2019-03-11T15:52:01.060Z,35395.4
2019-03-11T15:53:01.112Z,35088.9
2019-03-11T15:54:01.095Z,34797.1
2019-03-11T15:55:01.067Z,34513.1
2019-03-11T15:56:01.270Z,34204.2
2019-03-11T15:57:01.096Z,33874.5
2019-03-11T15:58:01.064Z,33518.2
2019-03-11T15:59:01.094Z,33146.8
2019-03-11T16:00:01.101Z,32781.6
2019-03-11T16:01:01.234Z,32406.3
2019-03-11T16:02:01.099Z,31966.3
2019-03-11T16:03:01.057Z,31527.1
2019-03-11T16:04:01.062Z,31122.0
2019-03-11T16:05:06.067Z,30743.7
2019-03-11T16:06:01.237Z,30386.2
2019-03-11T16:07:01.095Z,30010.8
2019-03-11T16:08:01.090Z,29626.9
2019-03-11T16:09:02.069Z,29227.7
2019-03-11T16:10:16.211Z,28820.7
2019-03-11T16:11:01.314Z,28416.9
2019-03-11T16:12:01.097Z,28030.3
2019-03-11T16:13:01.087Z,27676.6
2019-03-11T16:14:01.342Z,27352.3
2019-03-11T16:15:01.056Z,27032.1
2019-03-11T16:16:01.218Z,26706.1
2019-03-11T16:17:01.184Z,26375.3
2019-03-11T16:18:01.085Z,26046.3
2019-03-11T16:19:01.057Z,25718.5
2019-03-11T16:20:01.086Z,25381.3
2019-03-11T16:21:01.213Z,25047.1
2019-03-11T16:22:01.063Z,24710.6
2019-03-11T16:23:01.057Z,24368.1
2019-03-11T16:24:01.055Z,24027.2
2019-03-11T16:25:01.062Z,23657.9
2019-03-11T16:26:01.244Z,23284.8
2019-03-11T16:27:01.090Z,22949.1
2019-03-11T16:28:01.064Z,22645.7
2019-03-11T16:29:01.066Z,22371.5
2019-03-11T16:30:01.095Z,22115.9
2019-03-11T16:31:01.232Z,21867.0
2019-03-11T16:32:01.058Z,21610.8
2019-03-11T16:33:01.352Z,21355.3
2019-03-11T16:34:01.061Z,21087.3
2019-03-11T16:35:01.070Z,20813.9
2019-03-11T16:36:01.533Z,20512.5
2019-03-11T16:37:01.091Z,20194.3
2019-03-11T16:38:01.088Z,19854.1
2019-03-11T16:39:01.094Z,19472.0
2019-03-11T16:40:01.122Z,19094.7
2019-03-11T16:41:01.271Z,18715.3
2019-03-11T16:42:01.097Z,18282.7
2019-03-11T16:43:01.097Z,17775.7
2019-03-11T16:44:01.097Z,17191.4
2019-03-11T16:45:01.105Z,16568.5
2019-03-11T16:46:04.448Z,15948.6
2019-03-11T16:47:01.095Z,15344.5
2019-03-11T16:48:01.094Z,14755.8
2019-03-11T16:49:01.065Z,14187.1
2019-03-11T16:50:01.071Z,13645.9
2019-03-11T16:51:01.242Z,13135.4
2019-03-11T16:52:06.069Z,12643.7
2019-03-11T16:53:01.099Z,12174.3
2019-03-11T16:54:01.093Z,11739.2
2019-03-11T16:55:06.098Z,11320.7
2019-03-11T16:56:01.330Z,10904.2
2019-03-11T16:57:01.063Z,10497.9
2019-03-11T16:58:01.103Z,10126.2
2019-03-11T16:59:01.104Z,9798.4
2019-03-11T17:00:01.119Z,9486.7
2019-03-11T17:02:01.089Z,9135.4
2019-03-11T17:03:01.084Z,8776.2
2019-03-11T17:04:01.122Z,8403.1
2019-03-11T17:05:01.045Z,8016.5
2019-03-11T17:06:01.220Z,7610.9
2019-03-11T17:07:01.077Z,7199.5
2019-03-11T17:08:01.077Z,6794.7
2019-03-11T17:09:01.081Z,6402.7
2019-03-11T17:10:01.113Z,6024.6
2019-03-11T17:11:01.227Z,5659.9
2019-03-11T17:12:01.046Z,5300.7
2019-03-11T17:13:01.084Z,4945.5
2019-03-11T17:14:01.082Z,4598.5
2019-03-11T17:15:01.126Z,4260.0
2019-03-11T17:16:01.242Z,3936.1
2019-03-11T17:17:01.056Z,3656.9
2019-03-11T17:18:01.087Z,3392.9
2019-03-11T17:19:01.096Z,3143.8
2019-03-11T17:20:01.084Z,2915.3
2019-03-11T17:21:01.266Z,2708.0
2019-03-11T17:22:01.061Z,2515.4
2019-03-11T17:23:01.060Z,2331.3
2019-03-11T17:24:01.090Z,2153.0
2019-03-11T17:25:01.095Z,1978.9
2019-03-11T17:26:01.251Z,1811.0
2019-03-11T17:27:01.101Z,1656.1
2019-03-11T17:28:01.101Z,1517.3
2019-03-11T17:29:01.067Z,1389.4
2019-03-11T17:30:01.106Z,1267.5
2019-03-11T17:31:02.447Z,1148.9
2019-03-11T17:32:01.069Z,1035.5
2019-03-11T17:33:01.105Z,928.9
2019-03-11T17:34:01.076Z,828.9
2019-03-11T17:35:01.125Z,735.9
2019-03-11T17:36:01.310Z,651.1
2019-03-11T17:37:01.067Z,574.9
2019-03-11T17:38:01.097Z,507.1
2019-03-11T17:39:01.095Z,446.5
2019-03-11T17:41:01.223Z,390.9
2019-03-11T17:42:01.078Z,339.9
2019-03-11T17:43:01.208Z,292.2
2019-03-11T17:44:01.101Z,247.7
2019-03-11T17:45:01.069Z,207.9
2019-03-11T17:46:01.202Z,173.7
2019-03-11T17:47:01.089Z,145.1
2019-03-11T17:48:01.080Z,121.2
2019-03-11T17:49:01.082Z,101.3
2019-03-11T17:50:01.085Z,84.9
2019-03-11T17:51:01.229Z,71.3
2019-03-11T17:52:02.144Z,59.7
2019-03-11T17:53:01.057Z,49.9
2019-03-11T17:54:01.090Z,41.5
2019-03-11T17:55:01.050Z,34.3
2019-03-11T17:56:01.237Z,29.0
2019-03-11T17:57:01.082Z,24.5
2019-03-11T17:58:01.048Z,20.8
2019-03-11T17:59:01.055Z,17.7
2019-03-11T18:00:01.090Z,15.1
2019-03-11T18:01:01.249Z,12.9
2019-03-11T18:02:01.054Z,11.0
2019-03-11T18:03:01.057Z,9.3
2019-03-11T18:04:01.094Z,7.7
2019-03-11T18:05:01.083Z,6.4
2019-03-11T18:06:10.997Z,5.3
2019-03-11T18:07:01.096Z,4.5
2019-03-11T18:08:01.093Z,3.7
2019-03-11T18:09:01.272Z,3.1
2019-03-11T18:10:01.089Z,2.7
2019-03-11T18:11:01.240Z,2.3
2019-03-11T18:12:01.071Z,1.9
2019-03-11T18:13:01.058Z,1.6
2019-03-11T18:14:01.092Z,1.3
2019-03-11T18:15:01.092Z,1.1
2019-03-11T18:16:01.235Z,0.9
2019-03-11T18:17:01.061Z,0.8
2019-03-11T18:18:01.087Z,0.7
2019-03-11T18:19:01.157Z,0.5
2019-03-11T18:21:01.311Z,0.4
2019-03-11T18:22:01.091Z,0.3
2019-03-11T18:24:01.089Z,0.2
2019-03-11T18:25:01.060Z,0.1
